KHIB

Range Regional Airport

Hibbing, Minnesota, USA
METAR KHIB 172053Z AUTO 26009G19KT 10SM BKN036 M06/M13 A2978 RMK AO2 SLP113 T10561128 53004
Observed Flight Rules
Feb-17 @ 20:53 UTC (44 minutes ago) Visual Flight Rules
Wind Visibility Clouds
260° at 9 knots
 Gusting to 19 knots
10 miles
  • Broken at 3,600' AGL
Temperatures Readings
Current -6°C / 21°F
Dewpoint -13°C / 9°F
Humidity 58%
Altimeter 29.78" Hg
Pressure 1011.3 hPa
Elevation 412
METAR KHIB 172053Z AUTO 26009G19KT 10SM BKN036 M06/M13 A2978 RMK AO2 SLP113 T10561128 53004
Observed Flight Rules
Feb-17 @ 20:53 UTC
(44 minutes ago)
VFR
Wind Visibility
260° at 9 knots
 Gusting to 19 knots
10 miles
Clouds
  • Broken at 3,600' AGL
Temperature Dewpoint
-6°C / 21°F -13°C / 9°F
Humidity Altimeter Pressure
58% 29.78" Hg 1011.3 hPa